Gary, Minnesota
Current Conditions -  °F | °C
As of 4:55 AM on Friday 31 Oct 2014 (Local Time) from K3N8 Reporting Station
Clear Clear  
Wind Chill: 10°   Ceiling: Unl
Heat Index: 19°   Visibility: 10mi
Dew Point: 16°   Wind: 6mph
Humidity: 89%   Direction: 20°NNE
Pressure: 30.55"   Gusts: NA
Location:  47.37°N, 96.27°W
Report Text: K3N8 310955Z AUTO 02005KT 10SM CLR M07/M09 A3055 RMK AO2 T10751090
Loading
Personal Weather Stations






























Interactive Weather Map
Tropical Storm Tracking
New forecast layout! Learn more

10-Day Weather Forecast

Advertisements
Track Severe Weather on mobile